メインページ
METAR-TAF:

METAR-TAF

空港 :

ジザン, サウジアラビア

緯度: 16-54N, 経度: 042-35E, 海抜: 6m

現時点の気象観測

当レポートは23分前の01:00(UTC)に作成
の風 3kt
気温 30°C
湿度 79%
気圧 1007 hPa
視程10km以上
1,500メートル以下は雲なし、積乱雲なし

METAR: OEGN 250100Z 10003KT CAVOK 30/26 Q1007 NOSIG

時間: 04:23 (01:23 UTC)

予報

当レポートは2時間23分前の23:00(UTC)に作成
予報は25日の 00時(UTC)から 26日の 06時(UTC)まで有効
変向風 3kt
視程: 7000m
高度3000ftの雲はほとんどない
25日の 06時(UTC)から 25日の 08時(UTC)まで徐々に
西/南西の風 10kt、最大20ktの突風を伴う
25日の 12時(UTC)から 25日の 16時(UTC)まで一時的に
視程: 4000m
高度3000ftの雲は散在している
高度3500ftの雲はほとんどない, 積乱雲.
激しい雷雨, 雨, 風塵

TAF: OEGN 242300Z 2500/2606 VRB03KT 7000 FEW030 BECMG 2506/2508 24010G20KT TEMPO 2512/2516 4000 TSRA BLDU SCT030 FEW035CB

4,000以上の空港の気象観測と天気予報(METAR報とTAF報)

利用可能な観測所は地図上に黄色い丸と赤い丸で示す。

丸の上にカーソルを重ねると観測所名を参照できる。

次にクリックすると気象観測と天気予報を参照できる。

マップの切り替え:黒色「×」印の緑ボタンをクリックして拡大、「-」印の緑ボタンをクリックして縮小、緑色の三角印をクリックして隣りの地図に切り替え


METAR-TAF: